sensor_id;sensor_type;location;lat;lon;timestamp;temperature;humidity
78467;SHT31;67759;51.972;5.650;2024-03-08T00:01:06;10.3;46.6
78467;SHT31;67759;51.972;5.650;2024-03-08T00:03:35;10.3;46.6
78467;SHT31;67759;51.972;5.650;2024-03-08T00:06:04;10.2;46.7
78467;SHT31;67759;51.972;5.650;2024-03-08T00:08:33;10.2;46.9
78467;SHT31;67759;51.972;5.650;2024-03-08T00:11:03;10.3;47.0
78467;SHT31;67759;51.972;5.650;2024-03-08T00:13:33;10.4;46.7
78467;SHT31;67759;51.972;5.650;2024-03-08T00:16:04;10.5;45.9
78467;SHT31;67759;51.972;5.650;2024-03-08T00:18:36;10.5;45.7
78467;SHT31;67759;51.972;5.650;2024-03-08T00:21:07;10.5;45.7
78467;SHT31;67759;51.972;5.650;2024-03-08T00:23:38;10.4;45.8
78467;SHT31;67759;51.972;5.650;2024-03-08T00:26:07;10.4;45.7
78467;SHT31;67759;51.972;5.650;2024-03-08T00:28:36;10.3;45.7
78467;SHT31;67759;51.972;5.650;2024-03-08T00:31:05;10.3;45.8
78467;SHT31;67759;51.972;5.650;2024-03-08T00:33:36;10.2;46.0
78467;SHT31;67759;51.972;5.650;2024-03-08T00:36:06;10.1;46.1
78467;SHT31;67759;51.972;5.650;2024-03-08T00:38:35;10.1;46.2
78467;SHT31;67759;51.972;5.650;2024-03-08T00:41:07;10.1;46.1
78467;SHT31;67759;51.972;5.650;2024-03-08T00:43:36;10.0;46.2
78467;SHT31;67759;51.972;5.650;2024-03-08T00:46:04;10.0;46.2
78467;SHT31;67759;51.972;5.650;2024-03-08T00:48:34;10.0;46.3
78467;SHT31;67759;51.972;5.650;2024-03-08T00:51:04;9.9;46.4
78467;SHT31;67759;51.972;5.650;2024-03-08T00:53:33;9.9;46.2
78467;SHT31;67759;51.972;5.650;2024-03-08T00:56:03;9.9;46.3
78467;SHT31;67759;51.972;5.650;2024-03-08T00:58:34;9.8;46.5
78467;SHT31;67759;51.972;5.650;2024-03-08T01:01:03;9.8;46.4
78467;SHT31;67759;51.972;5.650;2024-03-08T01:03:31;9.8;46.5
78467;SHT31;67759;51.972;5.650;2024-03-08T01:06:00;9.7;46.5
78467;SHT31;67759;51.972;5.650;2024-03-08T01:08:29;9.7;46.6
78467;SHT31;67759;51.972;5.650;2024-03-08T01:10:59;9.7;46.5
78467;SHT31;67759;51.972;5.650;2024-03-08T01:13:28;9.7;46.4
78467;SHT31;67759;51.972;5.650;2024-03-08T01:15:56;9.7;46.3
78467;SHT31;67759;51.972;5.650;2024-03-08T01:18:25;9.6;46.2
78467;SHT31;67759;51.972;5.650;2024-03-08T01:20:53;9.6;46.5
78467;SHT31;67759;51.972;5.650;2024-03-08T01:23:22;9.6;46.4
78467;SHT31;67759;51.972;5.650;2024-03-08T01:25:50;9.5;46.4
78467;SHT31;67759;51.972;5.650;2024-03-08T01:28:23;9.5;46.5
78467;SHT31;67759;51.972;5.650;2024-03-08T01:30:52;9.5;46.5
78467;SHT31;67759;51.972;5.650;2024-03-08T01:33:25;9.4;46.4
78467;SHT31;67759;51.972;5.650;2024-03-08T01:35:54;9.4;46.5
78467;SHT31;67759;51.972;5.650;2024-03-08T01:38:23;9.4;46.5
78467;SHT31;67759;51.972;5.650;2024-03-08T01:40:52;9.4;46.4
78467;SHT31;67759;51.972;5.650;2024-03-08T01:43:22;9.3;46.6
78467;SHT31;67759;51.972;5.650;2024-03-08T01:45:51;9.3;46.5
78467;SHT31;67759;51.972;5.650;2024-03-08T01:48:22;9.3;46.5
78467;SHT31;67759;51.972;5.650;2024-03-08T01:50:52;9.3;46.4
78467;SHT31;67759;51.972;5.650;2024-03-08T01:53:24;9.3;46.2
78467;SHT31;67759;51.972;5.650;2024-03-08T01:55:56;9.2;46.4
78467;SHT31;67759;51.972;5.650;2024-03-08T01:58:28;9.2;46.3
78467;SHT31;67759;51.972;5.650;2024-03-08T02:00:59;9.3;46.2
78467;SHT31;67759;51.972;5.650;2024-03-08T02:03:31;9.4;46.0
78467;SHT31;67759;51.972;5.650;2024-03-08T02:06:00;9.4;45.3
78467;SHT31;67759;51.972;5.650;2024-03-08T02:08:29;9.4;45.2
78467;SHT31;67759;51.972;5.650;2024-03-08T02:10:58;9.4;45.0
78467;SHT31;67759;51.972;5.650;2024-03-08T02:13:28;9.4;45.0
78467;SHT31;67759;51.972;5.650;2024-03-08T02:15:58;9.4;45.1
78467;SHT31;67759;51.972;5.650;2024-03-08T02:18:30;9.3;44.9
78467;SHT31;67759;51.972;5.650;2024-03-08T02:21:03;9.3;45.0
78467;SHT31;67759;51.972;5.650;2024-03-08T02:23:33;9.3;45.0
78467;SHT31;67759;51.972;5.650;2024-03-08T02:26:03;9.2;45.2
78467;SHT31;67759;51.972;5.650;2024-03-08T02:28:33;9.2;45.1
78467;SHT31;67759;51.972;5.650;2024-03-08T02:31:06;9.2;45.4
78467;SHT31;67759;51.972;5.650;2024-03-08T02:33:36;9.3;45.5
78467;SHT31;67759;51.972;5.650;2024-03-08T02:36:06;9.3;45.0
78467;SHT31;67759;51.972;5.650;2024-03-08T02:38:35;9.3;44.7
78467;SHT31;67759;51.972;5.650;2024-03-08T02:41:04;9.3;44.5
78467;SHT31;67759;51.972;5.650;2024-03-08T02:43:33;9.2;44.7
78467;SHT31;67759;51.972;5.650;2024-03-08T02:46:02;9.2;44.5
78467;SHT31;67759;51.972;5.650;2024-03-08T02:48:34;9.1;44.7
78467;SHT31;67759;51.972;5.650;2024-03-08T02:51:02;9.1;44.7
78467;SHT31;67759;51.972;5.650;2024-03-08T02:53:31;9.0;44.7
78467;SHT31;67759;51.972;5.650;2024-03-08T02:56:01;8.9;45.0
78467;SHT31;67759;51.972;5.650;2024-03-08T02:58:31;8.9;45.2
78467;SHT31;67759;51.972;5.650;2024-03-08T03:00:59;8.9;45.3
78467;SHT31;67759;51.972;5.650;2024-03-08T03:03:28;8.8;45.3
78467;SHT31;67759;51.972;5.650;2024-03-08T03:05:56;8.8;45.5
78467;SHT31;67759;51.972;5.650;2024-03-08T03:08:25;8.8;45.7
78467;SHT31;67759;51.972;5.650;2024-03-08T03:10:54;8.8;45.7
78467;SHT31;67759;51.972;5.650;2024-03-08T03:13:23;8.8;45.7
78467;SHT31;67759;51.972;5.650;2024-03-08T03:15:52;8.8;45.5
78467;SHT31;67759;51.972;5.650;2024-03-08T03:18:21;8.7;45.4
78467;SHT31;67759;51.972;5.650;2024-03-08T03:20:50;8.7;45.4
78467;SHT31;67759;51.972;5.650;2024-03-08T03:23:19;8.7;45.5
78467;SHT31;67759;51.972;5.650;2024-03-08T03:25:49;8.7;45.6
78467;SHT31;67759;51.972;5.650;2024-03-08T03:28:18;8.6;45.6
78467;SHT31;67759;51.972;5.650;2024-03-08T03:30:52;8.6;45.7
78467;SHT31;67759;51.972;5.650;2024-03-08T03:33:25;8.6;45.9
78467;SHT31;67759;51.972;5.650;2024-03-08T03:35:54;8.6;46.1
78467;SHT31;67759;51.972;5.650;2024-03-08T03:38:23;8.5;46.1
78467;SHT31;67759;51.972;5.650;2024-03-08T03:40:52;8.5;45.9
78467;SHT31;67759;51.972;5.650;2024-03-08T03:43:24;8.5;46.0
78467;SHT31;67759;51.972;5.650;2024-03-08T03:45:53;8.5;46.1
78467;SHT31;67759;51.972;5.650;2024-03-08T03:48:22;8.6;46.4
78467;SHT31;67759;51.972;5.650;2024-03-08T03:50:51;8.6;46.4
78467;SHT31;67759;51.972;5.650;2024-03-08T03:53:19;8.8;45.8
78467;SHT31;67759;51.972;5.650;2024-03-08T03:55:48;8.8;45.2
78467;SHT31;67759;51.972;5.650;2024-03-08T03:58:17;8.8;45.1
78467;SHT31;67759;51.972;5.650;2024-03-08T04:00:48;8.8;45.0
78467;SHT31;67759;51.972;5.650;2024-03-08T04:03:17;8.8;45.2
78467;SHT31;67759;51.972;5.650;2024-03-08T04:05:46;8.8;45.3
78467;SHT31;67759;51.972;5.650;2024-03-08T04:08:15;8.7;45.3
78467;SHT31;67759;51.972;5.650;2024-03-08T04:10:44;8.7;45.6
78467;SHT31;67759;51.972;5.650;2024-03-08T04:13:12;8.6;45.7
78467;SHT31;67759;51.972;5.650;2024-03-08T04:15:42;8.6;45.7
78467;SHT31;67759;51.972;5.650;2024-03-08T04:18:11;8.6;45.8
78467;SHT31;67759;51.972;5.650;2024-03-08T04:20:41;8.5;46.1
78467;SHT31;67759;51.972;5.650;2024-03-08T04:23:10;8.5;46.2
78467;SHT31;67759;51.972;5.650;2024-03-08T04:25:40;8.5;46.0
78467;SHT31;67759;51.972;5.650;2024-03-08T04:28:10;8.5;46.2
78467;SHT31;67759;51.972;5.650;2024-03-08T04:30:40;8.4;46.2
78467;SHT31;67759;51.972;5.650;2024-03-08T04:33:09;8.4;46.3
78467;SHT31;67759;51.972;5.650;2024-03-08T04:35:37;8.4;46.3
78467;SHT31;67759;51.972;5.650;2024-03-08T04:38:06;8.4;46.4
78467;SHT31;67759;51.972;5.650;2024-03-08T04:40:34;8.4;46.4
78467;SHT31;67759;51.972;5.650;2024-03-08T04:43:05;8.3;46.5
78467;SHT31;67759;51.972;5.650;2024-03-08T04:45:35;8.3;46.5
78467;SHT31;67759;51.972;5.650;2024-03-08T04:48:03;8.3;46.7
78467;SHT31;67759;51.972;5.650;2024-03-08T04:50:32;8.3;46.5
78467;SHT31;67759;51.972;5.650;2024-03-08T04:53:01;8.3;46.7
78467;SHT31;67759;51.972;5.650;2024-03-08T04:55:29;8.3;46.6
78467;SHT31;67759;51.972;5.650;2024-03-08T04:57:58;8.3;46.6
78467;SHT31;67759;51.972;5.650;2024-03-08T05:00:27;8.3;46.6
78467;SHT31;67759;51.972;5.650;2024-03-08T05:02:55;8.3;46.5
78467;SHT31;67759;51.972;5.650;2024-03-08T05:05:24;8.2;46.7
78467;SHT31;67759;51.972;5.650;2024-03-08T05:07:55;8.2;46.6
78467;SHT31;67759;51.972;5.650;2024-03-08T05:10:26;8.2;46.7
78467;SHT31;67759;51.972;5.650;2024-03-08T05:12:54;8.3;46.7
78467;SHT31;67759;51.972;5.650;2024-03-08T05:15:22;8.3;46.6
78467;SHT31;67759;51.972;5.650;2024-03-08T05:17:51;8.3;46.7
78467;SHT31;67759;51.972;5.650;2024-03-08T05:20:20;8.3;46.9
78467;SHT31;67759;51.972;5.650;2024-03-08T05:22:49;8.4;46.7
78467;SHT31;67759;51.972;5.650;2024-03-08T05:25:18;8.5;46.4
78467;SHT31;67759;51.972;5.650;2024-03-08T05:27:46;8.7;46.0
78467;SHT31;67759;51.972;5.650;2024-03-08T05:30:16;8.8;45.3
78467;SHT31;67759;51.972;5.650;2024-03-08T05:32:44;8.9;44.9
78467;SHT31;67759;51.972;5.650;2024-03-08T05:35:13;8.9;45.0
78467;SHT31;67759;51.972;5.650;2024-03-08T05:37:42;8.9;45.0
78467;SHT31;67759;51.972;5.650;2024-03-08T05:40:13;9.0;44.9
78467;SHT31;67759;51.972;5.650;2024-03-08T05:42:41;9.0;44.3
78467;SHT31;67759;51.972;5.650;2024-03-08T05:45:10;9.0;44.3
78467;SHT31;67759;51.972;5.650;2024-03-08T05:47:41;9.0;44.0
78467;SHT31;67759;51.972;5.650;2024-03-08T05:50:10;9.0;44.1
78467;SHT31;67759;51.972;5.650;2024-03-08T05:52:44;8.9;44.1
78467;SHT31;67759;51.972;5.650;2024-03-08T05:55:14;8.8;44.3
78467;SHT31;67759;51.972;5.650;2024-03-08T05:57:45;8.8;44.5
78467;SHT31;67759;51.972;5.650;2024-03-08T06:00:15;8.7;44.7
78467;SHT31;67759;51.972;5.650;2024-03-08T06:02:45;8.6;44.9
78467;SHT31;67759;51.972;5.650;2024-03-08T06:05:15;8.6;45.1
78467;SHT31;67759;51.972;5.650;2024-03-08T06:07:49;8.5;45.1
78467;SHT31;67759;51.972;5.650;2024-03-08T06:10:20;8.5;45.4
78467;SHT31;67759;51.972;5.650;2024-03-08T06:12:48;8.5;45.3
78467;SHT31;67759;51.972;5.650;2024-03-08T06:15:18;8.5;45.3
78467;SHT31;67759;51.972;5.650;2024-03-08T06:17:49;8.5;45.5
78467;SHT31;67759;51.972;5.650;2024-03-08T06:20:19;8.5;45.4
78467;SHT31;67759;51.972;5.650;2024-03-08T06:22:52;8.4;45.4
78467;SHT31;67759;51.972;5.650;2024-03-08T06:25:23;8.4;45.4
78467;SHT31;67759;51.972;5.650;2024-03-08T06:27:51;8.4;45.5
78467;SHT31;67759;51.972;5.650;2024-03-08T06:30:20;8.4;45.5
78467;SHT31;67759;51.972;5.650;2024-03-08T06:32:48;8.4;45.4
78467;SHT31;67759;51.972;5.650;2024-03-08T06:35:18;8.4;45.4
78467;SHT31;67759;51.972;5.650;2024-03-08T06:37:46;8.4;45.5
78467;SHT31;67759;51.972;5.650;2024-03-08T06:40:17;8.4;45.4
78467;SHT31;67759;51.972;5.650;2024-03-08T06:42:47;8.4;45.9
78467;SHT31;67759;51.972;5.650;2024-03-08T06:45:21;8.5;45.5
78467;SHT31;67759;51.972;5.650;2024-03-08T06:47:50;8.5;45.3
78467;SHT31;67759;51.972;5.650;2024-03-08T06:50:18;8.6;45.3
78467;SHT31;67759;51.972;5.650;2024-03-08T06:52:47;8.6;45.1
78467;SHT31;67759;51.972;5.650;2024-03-08T06:55:20;8.6;45.1
78467;SHT31;67759;51.972;5.650;2024-03-08T06:57:52;8.6;45.2
78467;SHT31;67759;51.972;5.650;2024-03-08T07:00:20;8.7;45.0
78467;SHT31;67759;51.972;5.650;2024-03-08T07:02:54;8.8;44.7
78467;SHT31;67759;51.972;5.650;2024-03-08T07:05:25;8.8;44.6
78467;SHT31;67759;51.972;5.650;2024-03-08T07:07:54;8.9;44.3
78467;SHT31;67759;51.972;5.650;2024-03-08T07:10:24;9.0;44.1
78467;SHT31;67759;51.972;5.650;2024-03-08T07:12:53;9.0;44.1
78467;SHT31;67759;51.972;5.650;2024-03-08T07:15:21;9.1;44.0
78467;SHT31;67759;51.972;5.650;2024-03-08T07:17:50;9.1;44.0
78467;SHT31;67759;51.972;5.650;2024-03-08T07:20:19;9.1;43.7
78467;SHT31;67759;51.972;5.650;2024-03-08T07:22:48;9.1;43.8
78467;SHT31;67759;51.972;5.650;2024-03-08T07:25:18;9.1;44.3
78467;SHT31;67759;51.972;5.650;2024-03-08T07:27:54;9.3;44.1
78467;SHT31;67759;51.972;5.650;2024-03-08T07:30:25;9.6;43.2
78467;SHT31;67759;51.972;5.650;2024-03-08T07:33:25;9.8;42.5
78467;SHT31;67759;51.972;5.650;2024-03-08T07:35:53;9.9;42.2
78467;SHT31;67759;51.972;5.650;2024-03-08T07:38:23;9.9;42.1
78467;SHT31;67759;51.972;5.650;2024-03-08T07:40:51;9.9;41.9
78467;SHT31;67759;51.972;5.650;2024-03-08T07:43:20;9.9;42.2
78467;SHT31;67759;51.972;5.650;2024-03-08T07:45:50;9.9;42.3
78467;SHT31;67759;51.972;5.650;2024-03-08T07:48:21;9.9;42.2
78467;SHT31;67759;51.972;5.650;2024-03-08T07:50:49;9.9;42.3
78467;SHT31;67759;51.972;5.650;2024-03-08T07:53:18;9.9;42.3
78467;SHT31;67759;51.972;5.650;2024-03-08T07:55:46;9.8;42.3
78467;SHT31;67759;51.972;5.650;2024-03-08T07:58:15;9.8;42.6
78467;SHT31;67759;51.972;5.650;2024-03-08T08:00:44;9.8;42.6
78467;SHT31;67759;51.972;5.650;2024-03-08T08:03:13;9.8;42.4
78467;SHT31;67759;51.972;5.650;2024-03-08T08:05:42;9.8;42.4
78467;SHT31;67759;51.972;5.650;2024-03-08T08:08:10;9.8;42.6
78467;SHT31;67759;51.972;5.650;2024-03-08T08:10:39;9.8;42.8
78467;SHT31;67759;51.972;5.650;2024-03-08T08:13:08;9.9;42.9
78467;SHT31;67759;51.972;5.650;2024-03-08T08:15:37;9.9;43.0
78467;SHT31;67759;51.972;5.650;2024-03-08T08:18:08;9.9;43.1
78467;SHT31;67759;51.972;5.650;2024-03-08T08:20:36;10.0;43.2
78467;SHT31;67759;51.972;5.650;2024-03-08T08:23:05;10.0;42.9
78467;SHT31;67759;51.972;5.650;2024-03-08T08:25:35;10.1;42.7
78467;SHT31;67759;51.972;5.650;2024-03-08T08:28:04;10.1;42.9
78467;SHT31;67759;51.972;5.650;2024-03-08T08:30:33;10.2;42.8
78467;SHT31;67759;51.972;5.650;2024-03-08T08:33:02;10.3;42.9
78467;SHT31;67759;51.972;5.650;2024-03-08T08:35:31;10.4;42.3
78467;SHT31;67759;51.972;5.650;2024-03-08T08:38:00;10.4;42.5
78467;SHT31;67759;51.972;5.650;2024-03-08T08:40:32;10.5;42.2
78467;SHT31;67759;51.972;5.650;2024-03-08T08:43:03;10.6;41.9
78467;SHT31;67759;51.972;5.650;2024-03-08T08:45:33;10.6;41.8
78467;SHT31;67759;51.972;5.650;2024-03-08T08:48:02;10.7;42.0
78467;SHT31;67759;51.972;5.650;2024-03-08T08:50:31;10.8;41.7
78467;SHT31;67759;51.972;5.650;2024-03-08T08:53:02;11.0;41.3
78467;SHT31;67759;51.972;5.650;2024-03-08T08:55:33;11.3;41.3
78467;SHT31;67759;51.972;5.650;2024-03-08T08:58:02;11.5;40.8
78467;SHT31;67759;51.972;5.650;2024-03-08T09:00:33;11.7;40.5
78467;SHT31;67759;51.972;5.650;2024-03-08T09:03:02;11.8;40.3
78467;SHT31;67759;51.972;5.650;2024-03-08T09:05:33;11.9;39.6
78467;SHT31;67759;51.972;5.650;2024-03-08T09:08:04;12.0;39.2
78467;SHT31;67759;51.972;5.650;2024-03-08T09:10:34;12.1;39.2
78467;SHT31;67759;51.972;5.650;2024-03-08T09:13:07;12.1;39.1
78467;SHT31;67759;51.972;5.650;2024-03-08T09:15:36;12.2;39.2
78467;SHT31;67759;51.972;5.650;2024-03-08T09:18:08;12.3;39.0
78467;SHT31;67759;51.972;5.650;2024-03-08T09:20:37;12.4;38.4
78467;SHT31;67759;51.972;5.650;2024-03-08T09:23:09;12.5;38.3
78467;SHT31;67759;51.972;5.650;2024-03-08T09:25:37;12.5;38.5
78467;SHT31;67759;51.972;5.650;2024-03-08T09:28:06;12.5;38.3
78467;SHT31;67759;51.972;5.650;2024-03-08T09:30:35;12.5;38.8
78467;SHT31;67759;51.972;5.650;2024-03-08T09:33:05;12.5;38.2
78467;SHT31;67759;51.972;5.650;2024-03-08T09:35:34;12.4;38.9
78467;SHT31;67759;51.972;5.650;2024-03-08T09:38:03;12.4;38.8
78467;SHT31;67759;51.972;5.650;2024-03-08T09:40:31;12.4;38.8
78467;SHT31;67759;51.972;5.650;2024-03-08T09:43:00;12.4;39.1
78467;SHT31;67759;51.972;5.650;2024-03-08T09:45:32;12.4;39.4
78467;SHT31;67759;51.972;5.650;2024-03-08T09:48:07;12.4;39.3
78467;SHT31;67759;51.972;5.650;2024-03-08T09:50:39;12.4;39.7
78467;SHT31;67759;51.972;5.650;2024-03-08T09:53:09;12.4;39.9
78467;SHT31;67759;51.972;5.650;2024-03-08T09:55:39;12.5;39.9
78467;SHT31;67759;51.972;5.650;2024-03-08T09:58:11;12.6;39.4
78467;SHT31;67759;51.972;5.650;2024-03-08T10:01:04;12.6;39.1
78467;SHT31;67759;51.972;5.650;2024-03-08T10:03:33;12.7;39.5
78467;SHT31;67759;51.972;5.650;2024-03-08T10:06:03;12.8;38.5
78467;SHT31;67759;51.972;5.650;2024-03-08T10:08:32;12.9;38.7
78467;SHT31;67759;51.972;5.650;2024-03-08T10:11:03;12.9;38.4
78467;SHT31;67759;51.972;5.650;2024-03-08T10:13:32;12.9;38.8
78467;SHT31;67759;51.972;5.650;2024-03-08T10:16:01;12.9;38.2
78467;SHT31;67759;51.972;5.650;2024-03-08T10:18:32;13.0;38.9
78467;SHT31;67759;51.972;5.650;2024-03-08T10:21:05;13.0;39.0
78467;SHT31;67759;51.972;5.650;2024-03-08T10:23:37;13.1;38.9
78467;SHT31;67759;51.972;5.650;2024-03-08T10:26:16;13.1;39.2
78467;SHT31;67759;51.972;5.650;2024-03-08T10:28:48;13.2;39.0
78467;SHT31;67759;51.972;5.650;2024-03-08T10:31:17;13.3;38.9
78467;SHT31;67759;51.972;5.650;2024-03-08T10:33:46;13.4;38.3
78467;SHT31;67759;51.972;5.650;2024-03-08T10:36:16;13.5;37.9
78467;SHT31;67759;51.972;5.650;2024-03-08T10:38:45;13.6;38.2
78467;SHT31;67759;51.972;5.650;2024-03-08T10:41:18;13.7;37.5
78467;SHT31;67759;51.972;5.650;2024-03-08T10:43:57;13.7;37.8
78467;SHT31;67759;51.972;5.650;2024-03-08T10:46:35;13.8;37.9
78467;SHT31;67759;51.972;5.650;2024-03-08T10:49:08;13.9;37.3
78467;SHT31;67759;51.972;5.650;2024-03-08T10:51:41;13.9;37.5
78467;SHT31;67759;51.972;5.650;2024-03-08T10:54:12;14.0;37.4
78467;SHT31;67759;51.972;5.650;2024-03-08T10:56:42;14.1;37.3
78467;SHT31;67759;51.972;5.650;2024-03-08T10:59:12;14.2;36.7
78467;SHT31;67759;51.972;5.650;2024-03-08T11:01:42;14.4;36.9
78467;SHT31;67759;51.972;5.650;2024-03-08T11:04:10;14.5;36.4
78467;SHT31;67759;51.972;5.650;2024-03-08T11:06:46;14.6;36.3
78467;SHT31;67759;51.972;5.650;2024-03-08T11:09:33;14.8;36.0
78467;SHT31;67759;51.972;5.650;2024-03-08T11:12:27;15.0;35.3
78467;SHT31;67759;51.972;5.650;2024-03-08T11:15:02;15.1;35.7
78467;SHT31;67759;51.972;5.650;2024-03-08T11:17:47;15.1;35.4
78467;SHT31;67759;51.972;5.650;2024-03-08T11:20:17;15.2;35.3
78467;SHT31;67759;51.972;5.650;2024-03-08T11:22:52;15.3;35.6
78467;SHT31;67759;51.972;5.650;2024-03-08T11:25:37;15.3;35.3
78467;SHT31;67759;51.972;5.650;2024-03-08T11:28:11;15.4;34.6
78467;SHT31;67759;51.972;5.650;2024-03-08T11:30:43;15.5;34.1
78467;SHT31;67759;51.972;5.650;2024-03-08T11:33:14;15.6;34.5
78467;SHT31;67759;51.972;5.650;2024-03-08T11:35:43;15.7;34.2
78467;SHT31;67759;51.972;5.650;2024-03-08T11:38:12;15.7;34.0
78467;SHT31;67759;51.972;5.650;2024-03-08T11:40:43;15.8;34.5
78467;SHT31;67759;51.972;5.650;2024-03-08T11:43:16;15.8;33.3
78467;SHT31;67759;51.972;5.650;2024-03-08T11:45:45;15.9;33.6
78467;SHT31;67759;51.972;5.650;2024-03-08T11:48:13;15.9;33.2
78467;SHT31;67759;51.972;5.650;2024-03-08T11:50:42;15.9;33.5
78467;SHT31;67759;51.972;5.650;2024-03-08T11:53:11;15.9;32.9
78467;SHT31;67759;51.972;5.650;2024-03-08T11:55:40;16.0;33.2
78467;SHT31;67759;51.972;5.650;2024-03-08T11:58:09;16.0;33.5
78467;SHT31;67759;51.972;5.650;2024-03-08T12:00:37;16.0;33.3
78467;SHT31;67759;51.972;5.650;2024-03-08T12:03:08;16.0;32.8
78467;SHT31;67759;51.972;5.650;2024-03-08T12:05:38;16.0;32.9
78467;SHT31;67759;51.972;5.650;2024-03-08T12:08:07;16.0;32.9
78467;SHT31;67759;51.972;5.650;2024-03-08T12:10:40;16.1;33.3
78467;SHT31;67759;51.972;5.650;2024-03-08T12:13:09;16.1;32.8
78467;SHT31;67759;51.972;5.650;2024-03-08T12:15:41;16.1;32.6
78467;SHT31;67759;51.972;5.650;2024-03-08T12:18:10;16.2;32.7
78467;SHT31;67759;51.972;5.650;2024-03-08T12:20:39;16.2;32.1
78467;SHT31;67759;51.972;5.650;2024-03-08T12:23:15;16.3;31.7
78467;SHT31;67759;51.972;5.650;2024-03-08T12:25:44;16.3;31.5
78467;SHT31;67759;51.972;5.650;2024-03-08T12:28:14;16.3;31.4
78467;SHT31;67759;51.972;5.650;2024-03-08T12:30:48;16.3;32.3
78467;SHT31;67759;51.972;5.650;2024-03-08T12:33:21;16.3;32.4
78467;SHT31;67759;51.972;5.650;2024-03-08T12:35:54;16.4;32.2
78467;SHT31;67759;51.972;5.650;2024-03-08T12:38:28;16.4;32.3
78467;SHT31;67759;51.972;5.650;2024-03-08T12:40:58;16.4;32.2
78467;SHT31;67759;51.972;5.650;2024-03-08T12:43:27;16.4;32.0
78467;SHT31;67759;51.972;5.650;2024-03-08T12:45:57;16.5;31.8
78467;SHT31;67759;51.972;5.650;2024-03-08T12:48:25;16.5;31.6
78467;SHT31;67759;51.972;5.650;2024-03-08T12:50:56;16.5;32.2
78467;SHT31;67759;51.972;5.650;2024-03-08T12:53:24;16.6;32.4
78467;SHT31;67759;51.972;5.650;2024-03-08T12:55:55;16.7;32.5
78467;SHT31;67759;51.972;5.650;2024-03-08T12:58:25;16.9;31.8
78467;SHT31;67759;51.972;5.650;2024-03-08T13:00:54;17.1;31.3
78467;SHT31;67759;51.972;5.650;2024-03-08T13:03:22;17.2;31.0
78467;SHT31;67759;51.972;5.650;2024-03-08T13:05:51;17.2;31.1
78467;SHT31;67759;51.972;5.650;2024-03-08T13:08:23;17.2;31.4
78467;SHT31;67759;51.972;5.650;2024-03-08T13:10:54;17.2;32.0
78467;SHT31;67759;51.972;5.650;2024-03-08T13:13:23;17.3;30.9
78467;SHT31;67759;51.972;5.650;2024-03-08T13:15:52;17.3;30.8
78467;SHT31;67759;51.972;5.650;2024-03-08T13:18:23;17.3;30.7
78467;SHT31;67759;51.972;5.650;2024-03-08T13:20:51;17.2;32.2
78467;SHT31;67759;51.972;5.650;2024-03-08T13:23:21;17.2;30.8
78467;SHT31;67759;51.972;5.650;2024-03-08T13:25:49;17.2;31.8
78467;SHT31;67759;51.972;5.650;2024-03-08T13:28:18;17.2;31.0
78467;SHT31;67759;51.972;5.650;2024-03-08T13:30:49;17.2;31.7
78467;SHT31;67759;51.972;5.650;2024-03-08T13:33:18;17.2;31.7
78467;SHT31;67759;51.972;5.650;2024-03-08T13:35:47;17.2;31.7
78467;SHT31;67759;51.972;5.650;2024-03-08T13:38:18;17.2;31.8
78467;SHT31;67759;51.972;5.650;2024-03-08T13:40:47;17.2;31.8
78467;SHT31;67759;51.972;5.650;2024-03-08T13:43:18;17.2;31.2
78467;SHT31;67759;51.972;5.650;2024-03-08T13:45:46;17.3;31.3
78467;SHT31;67759;51.972;5.650;2024-03-08T13:48:15;17.3;31.5
78467;SHT31;67759;51.972;5.650;2024-03-08T13:50:49;17.3;32.0
78467;SHT31;67759;51.972;5.650;2024-03-08T13:53:18;17.3;31.5
78467;SHT31;67759;51.972;5.650;2024-03-08T13:55:46;17.3;31.4
78467;SHT31;67759;51.972;5.650;2024-03-08T13:58:15;17.3;31.8
78467;SHT31;67759;51.972;5.650;2024-03-08T14:00:43;17.3;32.4
78467;SHT31;67759;51.972;5.650;2024-03-08T14:03:14;17.4;32.7
78467;SHT31;67759;51.972;5.650;2024-03-08T14:05:44;17.5;32.4
78467;SHT31;67759;51.972;5.650;2024-03-08T14:08:13;17.6;31.0
78467;SHT31;67759;51.972;5.650;2024-03-08T14:10:43;17.7;31.2
78467;SHT31;67759;51.972;5.650;2024-03-08T14:13:13;17.7;30.6
78467;SHT31;67759;51.972;5.650;2024-03-08T14:15:42;17.7;30.6
78467;SHT31;67759;51.972;5.650;2024-03-08T14:18:12;17.7;31.0
78467;SHT31;67759;51.972;5.650;2024-03-08T14:20:42;17.7;31.3
78467;SHT31;67759;51.972;5.650;2024-03-08T14:23:10;17.6;31.6
78467;SHT31;67759;51.972;5.650;2024-03-08T14:25:39;17.6;30.9
78467;SHT31;67759;51.972;5.650;2024-03-08T14:28:07;17.6;31.2
78467;SHT31;67759;51.972;5.650;2024-03-08T14:30:39;17.6;31.3
78467;SHT31;67759;51.972;5.650;2024-03-08T14:33:09;17.6;30.9
78467;SHT31;67759;51.972;5.650;2024-03-08T14:35:38;17.6;30.9
78467;SHT31;67759;51.972;5.650;2024-03-08T14:38:07;17.6;31.2
78467;SHT31;67759;51.972;5.650;2024-03-08T14:40:37;17.6;31.1
78467;SHT31;67759;51.972;5.650;2024-03-08T14:43:06;17.6;31.3
78467;SHT31;67759;51.972;5.650;2024-03-08T14:45:37;17.7;31.4
78467;SHT31;67759;51.972;5.650;2024-03-08T14:48:09;17.7;31.1
78467;SHT31;67759;51.972;5.650;2024-03-08T14:50:40;17.8;30.9
78467;SHT31;67759;51.972;5.650;2024-03-08T14:53:10;17.9;30.9
78467;SHT31;67759;51.972;5.650;2024-03-08T14:55:42;17.9;31.0
78467;SHT31;67759;51.972;5.650;2024-03-08T14:58:13;17.9;31.2
78467;SHT31;67759;51.972;5.650;2024-03-08T15:00:42;17.9;30.9
78467;SHT31;67759;51.972;5.650;2024-03-08T15:03:11;17.9;31.5
78467;SHT31;67759;51.972;5.650;2024-03-08T15:05:43;17.8;30.8
78467;SHT31;67759;51.972;5.650;2024-03-08T15:08:15;17.8;30.2
78467;SHT31;67759;51.972;5.650;2024-03-08T15:10:50;17.7;30.9
78467;SHT31;67759;51.972;5.650;2024-03-08T15:13:20;17.7;30.8
78467;SHT31;67759;51.972;5.650;2024-03-08T15:15:54;17.6;30.8
78467;SHT31;67759;51.972;5.650;2024-03-08T15:18:25;17.6;31.3
78467;SHT31;67759;51.972;5.650;2024-03-08T15:20:57;17.5;31.5
78467;SHT31;67759;51.972;5.650;2024-03-08T15:23:28;17.5;31.4
78467;SHT31;67759;51.972;5.650;2024-03-08T15:25:56;17.4;32.0
78467;SHT31;67759;51.972;5.650;2024-03-08T15:28:25;17.4;32.4
78467;SHT31;67759;51.972;5.650;2024-03-08T15:30:58;17.5;31.8
78467;SHT31;67759;51.972;5.650;2024-03-08T15:33:31;17.5;31.5
78467;SHT31;67759;51.972;5.650;2024-03-08T15:36:00;17.5;32.0
78467;SHT31;67759;51.972;5.650;2024-03-08T15:38:34;17.5;31.9
78467;SHT31;67759;51.972;5.650;2024-03-08T15:41:03;17.5;31.9
78467;SHT31;67759;51.972;5.650;2024-03-08T15:43:36;17.6;31.5
78467;SHT31;67759;51.972;5.650;2024-03-08T15:46:06;17.6;30.9
78467;SHT31;67759;51.972;5.650;2024-03-08T15:48:36;17.7;32.1
78467;SHT31;67759;51.972;5.650;2024-03-08T15:51:06;17.7;31.2
78467;SHT31;67759;51.972;5.650;2024-03-08T15:53:36;17.8;31.5
78467;SHT31;67759;51.972;5.650;2024-03-08T15:56:06;17.8;31.3
78467;SHT31;67759;51.972;5.650;2024-03-08T15:58:35;17.9;30.7
78467;SHT31;67759;51.972;5.650;2024-03-08T16:01:05;17.9;30.6
78467;SHT31;67759;51.972;5.650;2024-03-08T16:03:34;17.9;30.6
78467;SHT31;67759;51.972;5.650;2024-03-08T16:06:02;17.9;31.0
78467;SHT31;67759;51.972;5.650;2024-03-08T16:08:32;17.9;30.9
78467;SHT31;67759;51.972;5.650;2024-03-08T16:11:06;17.9;31.2
78467;SHT31;67759;51.972;5.650;2024-03-08T16:13:34;17.9;31.1
78467;SHT31;67759;51.972;5.650;2024-03-08T16:16:06;17.9;31.8
78467;SHT31;67759;51.972;5.650;2024-03-08T16:18:38;17.9;30.6
78467;SHT31;67759;51.972;5.650;2024-03-08T16:21:09;17.9;30.8
78467;SHT31;67759;51.972;5.650;2024-03-08T16:23:38;17.9;30.7
78467;SHT31;67759;51.972;5.650;2024-03-08T16:26:09;17.9;30.5
78467;SHT31;67759;51.972;5.650;2024-03-08T16:28:39;17.9;30.8